sensor_id;sensor_type;location;lat;lon;timestamp;pressure;altitude;pressure_sealevel;temperature;humidity
61963;BME280;47927;42.646;23.096;2022-12-18T00:01:25;92775.88;;;9.85;62.16
61963;BME280;47927;42.646;23.096;2022-12-18T00:03:52;92778.16;;;9.71;61.85
61963;BME280;47927;42.646;23.096;2022-12-18T00:06:18;92779.47;;;9.80;61.27
61963;BME280;47927;42.646;23.096;2022-12-18T00:08:45;92784.75;;;9.84;60.68
61963;BME280;47927;42.646;23.096;2022-12-18T00:11:16;92785.56;;;9.53;61.21
61963;BME280;47927;42.646;23.096;2022-12-18T00:13:42;92788.59;;;9.55;61.19
61963;BME280;47927;42.646;23.096;2022-12-18T00:16:10;92796.56;;;9.46;61.34
61963;BME280;47927;42.646;23.096;2022-12-18T00:18:36;92796.59;;;9.02;62.02
61963;BME280;47927;42.646;23.096;2022-12-18T00:21:04;92798.56;;;8.77;62.68
61963;BME280;47927;42.646;23.096;2022-12-18T00:23:49;92799.84;;;8.83;62.69
61963;BME280;47927;42.646;23.096;2022-12-18T00:26:17;92803.50;;;9.10;62.05
61963;BME280;47927;42.646;23.096;2022-12-18T00:28:43;92807.38;;;9.17;61.59
61963;BME280;47927;42.646;23.096;2022-12-18T00:31:12;92822.66;;;9.50;60.96
61963;BME280;47927;42.646;23.096;2022-12-18T00:33:38;92814.00;;;9.62;60.12
61963;BME280;47927;42.646;23.096;2022-12-18T00:36:13;92820.56;;;9.55;59.93
61963;BME280;47927;42.646;23.096;2022-12-18T00:38:40;92816.34;;;9.35;60.69
61963;BME280;47927;42.646;23.096;2022-12-18T00:41:07;92815.75;;;9.57;59.97
61963;BME280;47927;42.646;23.096;2022-12-18T00:43:35;92825.41;;;9.73;59.81
61963;BME280;47927;42.646;23.096;2022-12-18T00:46:01;92830.66;;;9.92;59.38
61963;BME280;47927;42.646;23.096;2022-12-18T00:48:27;92828.88;;;9.96;58.87
61963;BME280;47927;42.646;23.096;2022-12-18T00:50:53;92833.03;;;9.66;59.89
61963;BME280;47927;42.646;23.096;2022-12-18T00:53:18;92825.00;;;8.95;61.18
61963;BME280;47927;42.646;23.096;2022-12-18T00:55:45;92831.22;;;8.38;63.39
61963;BME280;47927;42.646;23.096;2022-12-18T00:58:12;92832.09;;;8.82;62.20
61963;BME280;47927;42.646;23.096;2022-12-18T01:00:39;92836.34;;;9.19;61.08
61963;BME280;47927;42.646;23.096;2022-12-18T01:03:05;92823.56;;;9.42;60.08
61963;BME280;47927;42.646;23.096;2022-12-18T01:05:30;92840.34;;;9.76;59.51
61963;BME280;47927;42.646;23.096;2022-12-18T01:07:56;92842.25;;;9.63;59.35
61963;BME280;47927;42.646;23.096;2022-12-18T01:10:23;92847.22;;;9.84;58.92
61963;BME280;47927;42.646;23.096;2022-12-18T01:12:49;92820.47;;;9.68;59.12
61963;BME280;47927;42.646;23.096;2022-12-18T01:15:18;92843.78;;;9.80;58.96
61963;BME280;47927;42.646;23.096;2022-12-18T01:17:43;92845.47;;;9.88;58.77
61963;BME280;47927;42.646;23.096;2022-12-18T01:20:11;92819.56;;;9.95;58.39
61963;BME280;47927;42.646;23.096;2022-12-18T01:22:37;92844.44;;;10.09;58.31
61963;BME280;47927;42.646;23.096;2022-12-18T01:25:04;92842.16;;;10.07;58.14
61963;BME280;47927;42.646;23.096;2022-12-18T01:27:30;92846.00;;;10.13;58.04
61963;BME280;47927;42.646;23.096;2022-12-18T01:29:56;92843.41;;;10.13;57.74
61963;BME280;47927;42.646;23.096;2022-12-18T01:32:22;92849.81;;;10.00;57.74
61963;BME280;47927;42.646;23.096;2022-12-18T01:34:49;92842.19;;;9.91;57.63
61963;BME280;47927;42.646;23.096;2022-12-18T01:37:14;92862.56;;;9.89;57.74
61963;BME280;47927;42.646;23.096;2022-12-18T01:39:40;92852.00;;;9.82;57.68
61963;BME280;47927;42.646;23.096;2022-12-18T01:42:15;92868.63;;;9.77;57.54
61963;BME280;47927;42.646;23.096;2022-12-18T01:44:54;92862.09;;;9.52;57.56
61963;BME280;47927;42.646;23.096;2022-12-18T01:50:42;92860.28;;;7.79;61.67
61963;BME280;47927;42.646;23.096;2022-12-18T01:53:21;92877.56;;;7.62;62.87
61963;BME280;47927;42.646;23.096;2022-12-18T01:55:50;92867.75;;;7.92;61.74
61963;BME280;47927;42.646;23.096;2022-12-18T01:58:17;92870.38;;;7.35;63.32
61963;BME280;47927;42.646;23.096;2022-12-18T02:00:43;92866.16;;;7.30;63.08
61963;BME280;47927;42.646;23.096;2022-12-18T02:03:09;92868.28;;;7.73;61.84
61963;BME280;47927;42.646;23.096;2022-12-18T02:05:50;92871.53;;;7.25;63.34
61963;BME280;47927;42.646;23.096;2022-12-18T02:18:59;92895.41;;;8.13;60.53
61963;BME280;47927;42.646;23.096;2022-12-18T02:21:48;92891.16;;;7.47;61.84
61963;BME280;47927;42.646;23.096;2022-12-18T02:27:15;92896.09;;;6.52;64.72
61963;BME280;47927;42.646;23.096;2022-12-18T02:29:48;92871.69;;;6.32;64.94
61963;BME280;47927;42.646;23.096;2022-12-18T02:32:22;92898.06;;;7.10;62.68
61963;BME280;47927;42.646;23.096;2022-12-18T02:34:52;92906.34;;;7.36;61.64
61963;BME280;47927;42.646;23.096;2022-12-18T02:37:21;92886.81;;;6.72;63.04
61963;BME280;47927;42.646;23.096;2022-12-18T02:39:49;92904.53;;;6.82;62.87
61963;BME280;47927;42.646;23.096;2022-12-18T02:42:17;92905.69;;;7.27;62.08
61963;BME280;47927;42.646;23.096;2022-12-18T02:44:45;92908.00;;;7.41;60.89
61963;BME280;47927;42.646;23.096;2022-12-18T02:47:15;92916.19;;;7.88;59.45
61963;BME280;47927;42.646;23.096;2022-12-18T02:52:28;92916.28;;;6.80;62.39
61963;BME280;47927;42.646;23.096;2022-12-18T02:57:50;92923.81;;;7.27;60.91
61963;BME280;47927;42.646;23.096;2022-12-18T03:00:33;92909.41;;;7.50;60.12
61963;BME280;47927;42.646;23.096;2022-12-18T03:08:16;92925.22;;;7.24;60.94
61963;BME280;47927;42.646;23.096;2022-12-18T03:10:51;92928.63;;;7.16;60.88
61963;BME280;47927;42.646;23.096;2022-12-18T03:13:24;92932.00;;;7.50;60.07
61963;BME280;47927;42.646;23.096;2022-12-18T03:15:56;92934.38;;;7.67;59.09
61963;BME280;47927;42.646;23.096;2022-12-18T03:18:29;92941.50;;;7.58;59.40
61963;BME280;47927;42.646;23.096;2022-12-18T03:20:58;92930.59;;;7.52;59.15
61963;BME280;47927;42.646;23.096;2022-12-18T03:23:28;92938.50;;;7.56;59.46
61963;BME280;47927;42.646;23.096;2022-12-18T03:25:58;92942.66;;;7.36;59.83
61963;BME280;47927;42.646;23.096;2022-12-18T03:28:27;92942.06;;;6.97;61.18
61963;BME280;47927;42.646;23.096;2022-12-18T03:31:14;92929.63;;;6.70;61.79
61963;BME280;47927;42.646;23.096;2022-12-18T03:36:13;92957.97;;;6.66;62.47
61963;BME280;47927;42.646;23.096;2022-12-18T03:38:39;92959.31;;;6.72;62.16
61963;BME280;47927;42.646;23.096;2022-12-18T03:41:10;92954.28;;;6.46;62.81
61963;BME280;47927;42.646;23.096;2022-12-18T03:49:35;92973.88;;;5.79;64.93
61963;BME280;47927;42.646;23.096;2022-12-18T03:52:12;92974.41;;;5.29;65.73
61963;BME280;47927;42.646;23.096;2022-12-18T03:54:41;92983.84;;;4.90;67.28
61963;BME280;47927;42.646;23.096;2022-12-18T03:57:18;92976.09;;;5.34;65.71
61963;BME280;47927;42.646;23.096;2022-12-18T03:59:50;92987.03;;;5.22;66.14
61963;BME280;47927;42.646;23.096;2022-12-18T04:02:20;92980.25;;;5.82;64.08
61963;BME280;47927;42.646;23.096;2022-12-18T04:04:51;92979.53;;;5.72;64.11
61963;BME280;47927;42.646;23.096;2022-12-18T04:07:19;92993.41;;;6.15;62.49
61963;BME280;47927;42.646;23.096;2022-12-18T04:09:48;92988.06;;;6.20;62.45
61963;BME280;47927;42.646;23.096;2022-12-18T04:12:17;92995.53;;;6.22;61.75
61963;BME280;47927;42.646;23.096;2022-12-18T04:14:44;92990.59;;;6.29;61.20
61963;BME280;47927;42.646;23.096;2022-12-18T04:17:10;92994.28;;;5.63;63.20
61963;BME280;47927;42.646;23.096;2022-12-18T04:19:36;92991.13;;;5.40;63.36
61963;BME280;47927;42.646;23.096;2022-12-18T04:22:02;92983.69;;;4.78;65.62
61963;BME280;47927;42.646;23.096;2022-12-18T04:24:33;93008.47;;;5.48;63.80
61963;BME280;47927;42.646;23.096;2022-12-18T04:27:07;93011.16;;;5.61;63.48
61963;BME280;47927;42.646;23.096;2022-12-18T04:29:51;93014.22;;;5.63;63.14
61963;BME280;47927;42.646;23.096;2022-12-18T04:32:17;93020.84;;;5.90;62.37
61963;BME280;47927;42.646;23.096;2022-12-18T04:34:44;93024.47;;;6.06;61.51
61963;BME280;47927;42.646;23.096;2022-12-18T04:37:09;93025.00;;;6.29;61.05
61963;BME280;47927;42.646;23.096;2022-12-18T04:39:35;93027.44;;;6.64;59.57
61963;BME280;47927;42.646;23.096;2022-12-18T04:42:06;93029.41;;;6.37;60.14
61963;BME280;47927;42.646;23.096;2022-12-18T04:44:33;93028.56;;;6.54;59.79
61963;BME280;47927;42.646;23.096;2022-12-18T04:46:58;93029.91;;;6.60;59.29
61963;BME280;47927;42.646;23.096;2022-12-18T04:49:24;93035.38;;;6.59;59.35
61963;BME280;47927;42.646;23.096;2022-12-18T04:51:49;93034.28;;;6.90;58.70
61963;BME280;47927;42.646;23.096;2022-12-18T04:54:15;93035.38;;;6.59;58.83
61963;BME280;47927;42.646;23.096;2022-12-18T04:56:40;93039.38;;;7.07;57.86
61963;BME280;47927;42.646;23.096;2022-12-18T04:59:06;93036.84;;;6.39;59.00
61963;BME280;47927;42.646;23.096;2022-12-18T05:01:32;93043.78;;;6.85;58.39
61963;BME280;47927;42.646;23.096;2022-12-18T05:03:57;93039.53;;;6.81;58.15
61963;BME280;47927;42.646;23.096;2022-12-18T05:06:23;93055.41;;;6.41;59.20
61963;BME280;47927;42.646;23.096;2022-12-18T05:08:48;93067.88;;;5.66;61.14
61963;BME280;47927;42.646;23.096;2022-12-18T05:11:14;93070.59;;;6.13;60.46
61963;BME280;47927;42.646;23.096;2022-12-18T05:13:42;93072.09;;;6.91;58.53
61963;BME280;47927;42.646;23.096;2022-12-18T05:16:07;93044.53;;;7.07;57.19
61963;BME280;47927;42.646;23.096;2022-12-18T05:18:34;93077.16;;;6.87;57.53
61963;BME280;47927;42.646;23.096;2022-12-18T05:20:59;93081.53;;;6.87;57.63
61963;BME280;47927;42.646;23.096;2022-12-18T05:23:25;93085.72;;;6.41;58.69
61963;BME280;47927;42.646;23.096;2022-12-18T05:25:59;93090.13;;;6.78;58.19
61963;BME280;47927;42.646;23.096;2022-12-18T05:28:27;93096.78;;;6.50;58.37
61963;BME280;47927;42.646;23.096;2022-12-18T05:30:54;93100.03;;;6.76;57.98
61963;BME280;47927;42.646;23.096;2022-12-18T05:33:22;93101.63;;;6.90;57.76
61963;BME280;47927;42.646;23.096;2022-12-18T05:35:52;93101.13;;;6.75;57.83
61963;BME280;47927;42.646;23.096;2022-12-18T05:38:19;93105.13;;;6.64;57.96
61963;BME280;47927;42.646;23.096;2022-12-18T05:40:45;93104.03;;;6.18;59.26
61963;BME280;47927;42.646;23.096;2022-12-18T05:43:10;93122.63;;;6.11;58.88
61963;BME280;47927;42.646;23.096;2022-12-18T05:45:37;93118.22;;;5.77;60.32
61963;BME280;47927;42.646;23.096;2022-12-18T05:48:04;93122.75;;;6.15;59.27
61963;BME280;47927;42.646;23.096;2022-12-18T05:50:29;93128.72;;;6.62;58.01
61963;BME280;47927;42.646;23.096;2022-12-18T05:53:00;93127.34;;;6.65;56.91
61963;BME280;47927;42.646;23.096;2022-12-18T05:55:25;93143.09;;;6.90;56.69
61963;BME280;47927;42.646;23.096;2022-12-18T05:57:51;93139.44;;;6.91;56.49
61963;BME280;47927;42.646;23.096;2022-12-18T06:00:17;93134.28;;;6.44;57.34
61963;BME280;47927;42.646;23.096;2022-12-18T06:02:46;93137.31;;;6.46;57.66
61963;BME280;47927;42.646;23.096;2022-12-18T06:05:12;93135.09;;;6.74;56.68
61963;BME280;47927;42.646;23.096;2022-12-18T06:07:37;93117.53;;;6.41;57.04
61963;BME280;47927;42.646;23.096;2022-12-18T06:10:03;93126.75;;;6.59;56.81
61963;BME280;47927;42.646;23.096;2022-12-18T06:12:29;93133.66;;;6.47;57.13
61963;BME280;47927;42.646;23.096;2022-12-18T06:14:54;93143.56;;;6.36;57.07
61963;BME280;47927;42.646;23.096;2022-12-18T06:17:20;93139.22;;;6.02;57.68
61963;BME280;47927;42.646;23.096;2022-12-18T06:19:45;93138.59;;;5.87;58.38
61963;BME280;47927;42.646;23.096;2022-12-18T06:22:11;93147.88;;;6.06;57.92
61963;BME280;47927;42.646;23.096;2022-12-18T06:24:36;93156.09;;;5.73;58.56
61963;BME280;47927;42.646;23.096;2022-12-18T06:27:02;93150.63;;;5.66;58.88
61963;BME280;47927;42.646;23.096;2022-12-18T06:29:27;93160.34;;;5.86;58.49
61963;BME280;47927;42.646;23.096;2022-12-18T06:31:53;93155.47;;;5.76;58.57
61963;BME280;47927;42.646;23.096;2022-12-18T06:34:18;93158.09;;;5.93;58.58
61963;BME280;47927;42.646;23.096;2022-12-18T06:36:44;93162.13;;;5.34;60.01
61963;BME280;47927;42.646;23.096;2022-12-18T06:39:10;93159.28;;;5.79;59.23
61963;BME280;47927;42.646;23.096;2022-12-18T06:41:36;93162.03;;;6.00;58.38
61963;BME280;47927;42.646;23.096;2022-12-18T06:44:01;93182.41;;;5.84;59.15
61963;BME280;47927;42.646;23.096;2022-12-18T06:46:27;93180.59;;;6.28;58.06
61963;BME280;47927;42.646;23.096;2022-12-18T06:48:52;93193.69;;;5.97;58.26
61963;BME280;47927;42.646;23.096;2022-12-18T06:51:20;93186.06;;;6.09;58.18
61963;BME280;47927;42.646;23.096;2022-12-18T06:53:46;93187.25;;;6.55;57.27
61963;BME280;47927;42.646;23.096;2022-12-18T06:56:12;93189.47;;;6.74;56.41
61963;BME280;47927;42.646;23.096;2022-12-18T06:58:38;93188.94;;;6.98;56.02
61963;BME280;47927;42.646;23.096;2022-12-18T07:01:06;93184.69;;;6.93;55.75
61963;BME280;47927;42.646;23.096;2022-12-18T07:03:32;93193.31;;;7.06;54.77
61963;BME280;47927;42.646;23.096;2022-12-18T07:05:57;93188.34;;;6.92;54.84
61963;BME280;47927;42.646;23.096;2022-12-18T07:08:23;93191.81;;;7.05;54.93
61963;BME280;47927;42.646;23.096;2022-12-18T07:10:48;93192.28;;;6.43;56.14
61963;BME280;47927;42.646;23.096;2022-12-18T07:13:18;93193.50;;;6.36;56.20
61963;BME280;47927;42.646;23.096;2022-12-18T07:15:43;93200.34;;;6.50;55.85
61963;BME280;47927;42.646;23.096;2022-12-18T07:18:10;93198.09;;;6.87;54.89
61963;BME280;47927;42.646;23.096;2022-12-18T07:20:35;93195.69;;;6.81;54.94
61963;BME280;47927;42.646;23.096;2022-12-18T07:23:02;93202.50;;;6.95;54.85
61963;BME280;47927;42.646;23.096;2022-12-18T07:25:28;93208.94;;;6.80;54.78
61963;BME280;47927;42.646;23.096;2022-12-18T07:27:54;93208.34;;;6.83;54.52
61963;BME280;47927;42.646;23.096;2022-12-18T07:30:19;93205.97;;;6.52;55.51
61963;BME280;47927;42.646;23.096;2022-12-18T07:32:45;93211.56;;;6.62;55.32
61963;BME280;47927;42.646;23.096;2022-12-18T07:35:10;93221.25;;;6.92;54.56
61963;BME280;47927;42.646;23.096;2022-12-18T07:37:36;93211.53;;;7.27;53.94
61963;BME280;47927;42.646;23.096;2022-12-18T07:40:02;93196.84;;;7.31;53.43
61963;BME280;47927;42.646;23.096;2022-12-18T07:42:27;93215.91;;;7.35;53.24
61963;BME280;47927;42.646;23.096;2022-12-18T07:44:56;93212.66;;;7.47;52.73
61963;BME280;47927;42.646;23.096;2022-12-18T07:47:22;93217.59;;;7.61;52.38
61963;BME280;47927;42.646;23.096;2022-12-18T07:49:47;93228.09;;;7.64;52.38
61963;BME280;47927;42.646;23.096;2022-12-18T07:52:13;93217.63;;;7.82;52.40
61963;BME280;47927;42.646;23.096;2022-12-18T07:54:38;93221.34;;;7.93;51.53
61963;BME280;47927;42.646;23.096;2022-12-18T07:57:06;93229.47;;;7.91;51.92
61963;BME280;47927;42.646;23.096;2022-12-18T07:59:31;93233.34;;;8.06;51.77
61963;BME280;47927;42.646;23.096;2022-12-18T08:01:57;93236.22;;;7.84;52.54
61963;BME280;47927;42.646;23.096;2022-12-18T08:04:22;93235.97;;;7.76;52.49
61963;BME280;47927;42.646;23.096;2022-12-18T08:06:48;93234.44;;;7.46;52.81
61963;BME280;47927;42.646;23.096;2022-12-18T08:09:13;93236.03;;;7.38;53.34
61963;BME280;47927;42.646;23.096;2022-12-18T08:11:39;93245.41;;;7.51;53.52
61963;BME280;47927;42.646;23.096;2022-12-18T08:14:04;93248.00;;;7.81;52.95
61963;BME280;47927;42.646;23.096;2022-12-18T08:16:30;93243.88;;;7.80;53.10
61963;BME280;47927;42.646;23.096;2022-12-18T08:18:56;93256.69;;;7.85;52.73
61963;BME280;47927;42.646;23.096;2022-12-18T08:21:24;93254.13;;;7.76;52.41
61963;BME280;47927;42.646;23.096;2022-12-18T08:23:52;93254.19;;;7.68;52.67
61963;BME280;47927;42.646;23.096;2022-12-18T08:26:18;93258.94;;;7.57;53.20
61963;BME280;47927;42.646;23.096;2022-12-18T08:28:44;93259.66;;;7.37;53.49
61963;BME280;47927;42.646;23.096;2022-12-18T08:31:09;93256.00;;;7.38;53.23
61963;BME280;47927;42.646;23.096;2022-12-18T08:33:36;93267.03;;;7.26;53.59
61963;BME280;47927;42.646;23.096;2022-12-18T08:36:03;93263.84;;;7.20;53.57
61963;BME280;47927;42.646;23.096;2022-12-18T08:38:29;93243.50;;;6.93;54.22
61963;BME280;47927;42.646;23.096;2022-12-18T08:41:14;93266.22;;;7.34;53.65
61963;BME280;47927;42.646;23.096;2022-12-18T08:43:41;93266.00;;;7.48;53.03
61963;BME280;47927;42.646;23.096;2022-12-18T08:46:27;93274.66;;;7.22;53.96
61963;BME280;47927;42.646;23.096;2022-12-18T08:48:56;93273.00;;;7.18;54.00
61963;BME280;47927;42.646;23.096;2022-12-18T08:51:21;93275.16;;;7.07;54.05
61963;BME280;47927;42.646;23.096;2022-12-18T08:53:47;93259.56;;;6.51;54.68
61963;BME280;47927;42.646;23.096;2022-12-18T08:56:13;93270.03;;;6.81;54.48
61963;BME280;47927;42.646;23.096;2022-12-18T08:58:39;93270.09;;;6.64;54.76
61963;BME280;47927;42.646;23.096;2022-12-18T09:01:08;93273.28;;;6.52;55.34
61963;BME280;47927;42.646;23.096;2022-12-18T09:03:37;93269.09;;;7.03;53.88
61963;BME280;47927;42.646;23.096;2022-12-18T09:06:04;93274.75;;;7.35;52.85
61963;BME280;47927;42.646;23.096;2022-12-18T09:08:29;93260.59;;;7.32;53.39
61963;BME280;47927;42.646;23.096;2022-12-18T09:10:55;93272.09;;;7.52;53.08
61963;BME280;47927;42.646;23.096;2022-12-18T09:13:21;93278.75;;;7.70;52.22
61963;BME280;47927;42.646;23.096;2022-12-18T09:15:52;93259.78;;;7.70;52.34
61963;BME280;47927;42.646;23.096;2022-12-18T09:18:20;93278.13;;;7.94;52.75
61963;BME280;47927;42.646;23.096;2022-12-18T09:20:46;93274.06;;;8.06;52.27
61963;BME280;47927;42.646;23.096;2022-12-18T09:23:12;93269.66;;;8.06;51.95
61963;BME280;47927;42.646;23.096;2022-12-18T09:25:38;93271.06;;;8.04;52.16
61963;BME280;47927;42.646;23.096;2022-12-18T09:28:12;93262.75;;;8.10;52.09
61963;BME280;47927;42.646;23.096;2022-12-18T09:30:40;93239.50;;;8.35;51.34
61963;BME280;47927;42.646;23.096;2022-12-18T09:33:06;93258.16;;;8.58;50.99
61963;BME280;47927;42.646;23.096;2022-12-18T09:35:31;93272.53;;;8.55;50.98
61963;BME280;47927;42.646;23.096;2022-12-18T09:37:57;93266.75;;;8.50;51.13
61963;BME280;47927;42.646;23.096;2022-12-18T09:40:25;93272.38;;;8.73;50.85
61963;BME280;47927;42.646;23.096;2022-12-18T09:42:57;93269.16;;;8.88;50.64
61963;BME280;47927;42.646;23.096;2022-12-18T09:45:24;93071.59;;;7.60;50.50
61963;BME280;47927;42.646;23.096;2022-12-18T09:47:52;93269.00;;;9.05;50.06
61963;BME280;47927;42.646;23.096;2022-12-18T09:50:34;93266.53;;;9.21;49.78
61963;BME280;47927;42.646;23.096;2022-12-18T09:53:07;93256.47;;;9.20;49.59
61963;BME280;47927;42.646;23.096;2022-12-18T09:55:40;93257.53;;;9.31;49.47
61963;BME280;47927;42.646;23.096;2022-12-18T09:58:13;93255.81;;;9.23;49.21
61963;BME280;47927;42.646;23.096;2022-12-18T10:00:41;93263.63;;;9.35;48.99
61963;BME280;47927;42.646;23.096;2022-12-18T10:03:11;93258.72;;;9.09;49.45
61963;BME280;47927;42.646;23.096;2022-12-18T10:09:33;93246.97;;;8.90;49.51
61963;BME280;47927;42.646;23.096;2022-12-18T10:14:28;93257.09;;;8.71;50.07
61963;BME280;47927;42.646;23.096;2022-12-18T10:17:26;93261.91;;;8.48;50.04
61963;BME280;47927;42.646;23.096;2022-12-18T10:22:50;93257.25;;;8.75;49.51
61963;BME280;47927;42.646;23.096;2022-12-18T10:25:29;93257.25;;;8.33;49.82
61963;BME280;47927;42.646;23.096;2022-12-18T10:28:07;93254.97;;;8.31;49.96
61963;BME280;47927;42.646;23.096;2022-12-18T10:30:35;93260.00;;;8.15;49.79
61963;BME280;47927;42.646;23.096;2022-12-18T10:33:02;93255.44;;;8.33;49.67
61963;BME280;47927;42.646;23.096;2022-12-18T10:35:27;93262.00;;;7.89;49.71
61963;BME280;47927;42.646;23.096;2022-12-18T10:38:05;93264.66;;;8.22;49.77
61963;BME280;47927;42.646;23.096;2022-12-18T10:40:32;93257.75;;;8.26;49.25
61963;BME280;47927;42.646;23.096;2022-12-18T10:43:13;93253.09;;;8.40;48.35
61963;BME280;47927;42.646;23.096;2022-12-18T10:45:41;93245.28;;;8.61;48.34
61963;BME280;47927;42.646;23.096;2022-12-18T10:48:20;93254.34;;;8.13;49.31
61963;BME280;47927;42.646;23.096;2022-12-18T10:50:49;93243.97;;;7.92;49.19
61963;BME280;47927;42.646;23.096;2022-12-18T10:53:23;93250.53;;;7.90;48.22
61963;BME280;47927;42.646;23.096;2022-12-18T10:55:52;93263.06;;;7.88;49.31
61963;BME280;47927;42.646;23.096;2022-12-18T11:01:10;93249.28;;;7.37;50.25
61963;BME280;47927;42.646;23.096;2022-12-18T11:06:19;93246.00;;;7.19;50.53
61963;BME280;47927;42.646;23.096;2022-12-18T11:09:17;93253.22;;;7.04;50.97
61963;BME280;47927;42.646;23.096;2022-12-18T11:11:49;93253.91;;;6.75;50.83
61963;BME280;47927;42.646;23.096;2022-12-18T11:16:49;93247.69;;;6.68;50.96
61963;BME280;47927;42.646;23.096;2022-12-18T11:21:54;93266.94;;;7.43;50.13
61963;BME280;47927;42.646;23.096;2022-12-18T11:24:30;93266.28;;;7.55;49.68
61963;BME280;47927;42.646;23.096;2022-12-18T11:27:04;93268.25;;;7.88;48.83
61963;BME280;47927;42.646;23.096;2022-12-18T11:29:38;93250.88;;;7.20;48.33
61963;BME280;47927;42.646;23.096;2022-12-18T11:34:58;93275.19;;;6.98;48.46
61963;BME280;47927;42.646;23.096;2022-12-18T11:37:48;93275.03;;;7.42;48.14
61963;BME280;47927;42.646;23.096;2022-12-18T11:40:19;93272.44;;;7.42;48.15
61963;BME280;47927;42.646;23.096;2022-12-18T11:42:58;93283.63;;;7.25;48.32
61963;BME280;47927;42.646;23.096;2022-12-18T11:45:34;93263.13;;;7.11;48.53
61963;BME280;47927;42.646;23.096;2022-12-18T11:48:12;93269.75;;;7.29;47.69
61963;BME280;47927;42.646;23.096;2022-12-18T11:50:53;93275.53;;;6.88;48.28
61963;BME280;47927;42.646;23.096;2022-12-18T11:53:20;93276.06;;;7.49;46.86
61963;BME280;47927;42.646;23.096;2022-12-18T12:18:24;93275.75;;;8.52;43.99
61963;BME280;47927;42.646;23.096;2022-12-18T12:21:14;93281.03;;;8.77;42.98
61963;BME280;47927;42.646;23.096;2022-12-18T12:35:10;93277.25;;;8.74;43.32
61963;BME280;47927;42.646;23.096;2022-12-18T12:38:00;93281.13;;;8.68;43.85
61963;BME280;47927;42.646;23.096;2022-12-18T12:40:32;93279.78;;;8.62;43.99
61963;BME280;47927;42.646;23.096;2022-12-18T12:43:07;93265.56;;;8.80;43.54
61963;BME280;47927;42.646;23.096;2022-12-18T12:53:53;93282.94;;;9.01;43.43
61963;BME280;47927;42.646;23.096;2022-12-18T12:56:21;93286.22;;;9.10;43.00
61963;BME280;47927;42.646;23.096;2022-12-18T12:59:12;93283.94;;;8.96;43.11
61963;BME280;47927;42.646;23.096;2022-12-18T13:02:08;93296.13;;;8.83;43.49
61963;BME280;47927;42.646;23.096;2022-12-18T13:07:36;93290.25;;;8.53;44.35
61963;BME280;47927;42.646;23.096;2022-12-18T13:15:23;93308.63;;;8.69;43.99
61963;BME280;47927;42.646;23.096;2022-12-18T13:18:03;93315.03;;;8.72;44.11
61963;BME280;47927;42.646;23.096;2022-12-18T13:20:40;93323.97;;;8.41;45.15
61963;BME280;47927;42.646;23.096;2022-12-18T13:25:56;93309.63;;;8.77;43.80
61963;BME280;47927;42.646;23.096;2022-12-18T13:31:57;93305.28;;;8.69;43.87
61963;BME280;47927;42.646;23.096;2022-12-18T13:34:22;93320.22;;;8.72;44.02
61963;BME280;47927;42.646;23.096;2022-12-18T13:36:48;93318.31;;;8.81;44.07
61963;BME280;47927;42.646;23.096;2022-12-18T13:41:41;93317.69;;;8.63;44.24
61963;BME280;47927;42.646;23.096;2022-12-18T13:44:12;93333.63;;;8.74;44.11
61963;BME280;47927;42.646;23.096;2022-12-18T13:46:44;93318.53;;;8.88;44.45
61963;BME280;47927;42.646;23.096;2022-12-18T13:51:42;93323.81;;;8.79;44.44
61963;BME280;47927;42.646;23.096;2022-12-18T13:54:37;93329.84;;;8.71;44.61
61963;BME280;47927;42.646;23.096;2022-12-18T13:57:05;93336.75;;;8.46;44.97
61963;BME280;47927;42.646;23.096;2022-12-18T13:59:49;93336.91;;;8.20;45.76
61963;BME280;47927;42.646;23.096;2022-12-18T14:02:15;93338.78;;;8.11;45.80
61963;BME280;47927;42.646;23.096;2022-12-18T14:04:45;93320.13;;;7.88;46.17
61963;BME280;47927;42.646;23.096;2022-12-18T14:07:14;93332.66;;;8.15;45.70
61963;BME280;47927;42.646;23.096;2022-12-18T14:10:00;93332.75;;;8.28;46.03
61963;BME280;47927;42.646;23.096;2022-12-18T14:12:28;93338.81;;;8.32;45.94
61963;BME280;47927;42.646;23.096;2022-12-18T14:15:30;93344.38;;;8.21;45.90
61963;BME280;47927;42.646;23.096;2022-12-18T14:18:01;93342.34;;;7.76;46.31
61963;BME280;47927;42.646;23.096;2022-12-18T14:20:30;93341.78;;;8.21;45.59
61963;BME280;47927;42.646;23.096;2022-12-18T14:22:57;93345.88;;;7.63;46.35
61963;BME280;47927;42.646;23.096;2022-12-18T14:25:26;93354.97;;;7.31;46.83
61963;BME280;47927;42.646;23.096;2022-12-18T14:30:38;93359.34;;;7.48;46.88
61963;BME280;47927;42.646;23.096;2022-12-18T14:35:36;93358.03;;;7.80;46.25
61963;BME280;47927;42.646;23.096;2022-12-18T14:40:43;93356.97;;;7.72;45.89
61963;BME280;47927;42.646;23.096;2022-12-18T14:43:12;93354.72;;;8.01;45.42
61963;BME280;47927;42.646;23.096;2022-12-18T14:45:41;93354.28;;;7.98;45.33
61963;BME280;47927;42.646;23.096;2022-12-18T14:48:11;93352.47;;;7.90;45.33
61963;BME280;47927;42.646;23.096;2022-12-18T14:50:39;93349.66;;;8.04;44.99
61963;BME280;47927;42.646;23.096;2022-12-18T14:53:04;93355.44;;;7.80;45.62
61963;BME280;47927;42.646;23.096;2022-12-18T14:55:30;93360.66;;;7.71;45.82
61963;BME280;47927;42.646;23.096;2022-12-18T14:57:56;93365.69;;;7.76;46.10
61963;BME280;47927;42.646;23.096;2022-12-18T15:00:24;93365.59;;;7.94;45.47
61963;BME280;47927;42.646;23.096;2022-12-18T15:02:53;93376.75;;;7.94;45.56
61963;BME280;47927;42.646;23.096;2022-12-18T15:05:30;93359.28;;;7.74;45.66
61963;BME280;47927;42.646;23.096;2022-12-18T15:07:58;93365.59;;;7.94;45.43
61963;BME280;47927;42.646;23.096;2022-12-18T15:10:30;93364.94;;;7.97;45.00
61963;BME280;47927;42.646;23.096;2022-12-18T15:17:59;93374.50;;;7.75;45.41
61963;BME280;47927;42.646;23.096;2022-12-18T15:20:25;93367.88;;;7.57;45.59
61963;BME280;47927;42.646;23.096;2022-12-18T15:22:51;93379.97;;;7.44;45.97
61963;BME280;47927;42.646;23.096;2022-12-18T15:25:27;93375.03;;;7.60;45.33